Relevés horaires St-Hubert (Belgique)


Relevés horaires à St-Hubert - Lundi 19 Juill. 2021
Heure UTC1 Température [°C] Vent [km/h] Hum. [%] Pres.4 [hPa] Visi. [Km] Nébu. [octa] Préc.5 [mm] Cond.
2m. Res. Ros. Dir.2 Vit. Moy. Raf.3
23:00 12.0 12.0 10.6 ENE 3.7 5.6 7.4 91 1021.6(0.2/3h) 17 0/8 -- --
22:00 13.1 13.1 11.1 ENE 5.6 5.6 7.4 88 1021.3(0.2/3h) 17 0/8 -- --
21:00 14.0 14.0 11.8 NE 3.7 9.3 13.0 87 1021(0.1/3h) 21 0/8 -- --
20:00 15.8 15.8 11.8 NNE 5.6 7.4 9.3 77 1020.4(0.1/3h) 23 0/8 -- --
19:00 17.2 17.2 12.2 N 5.6 9.3 13.0 72 1020.1(-0.3/3h) 25 0/8 -- --
18:00 18.6 18.6 12.5 N 7.4 11.1 16.7 68 1019.8(-0.4/3h) 19 0/8 0/12h
--
17:00 19.6 19.6 12.3 N 7.4 9.3 13.0 63 1019.7(-0.6/3h) 27 0/8 -- --
16:00 20.9 20.9 12.8 N 7.4 9.3 16.7 60 1019.5(-0.5/3h) 30 0/8 -- --
15:00 21.1 21.1 12.4 N 9.3 11.1 16.7 58 1019.7(-0.5/3h) 29 0/8 -- --
14:00 21.2 21.2 12.3 NNO 9.3 9.3 16.7 57 1020(-0.3/3h) 30 0/8 -- --
13:00 21.3 21.3 12.3 N 7.4 9.3 14.8 56 1020(-0.4/3h) 35 3/8 -- --
12:00 21.3 21.3 10.2 N 7.4 11.1 14.8 49 1020.3(-0.3/3h) 35 0/8 0/6h
--
11:00 20.7 20.7 12.1 N 5.6 7.4 13.0 58 1020.4(-0.3/3h) 28 0/8 -- --
10:00 20.0 20.0 9.2 N 7.4 7.4 13.0 50 1020.7(0.1/3h) 40 0/8 -- --
09:00 18.4 18.4 10.1 N 7.4 11.1 14.8 58 1021.3(0.4/3h) 35 0/8 -- --
08:00 18.1 18.1 11.2 NNE 7.4 11.1 14.8 64 1021.3(0.3/3h) 35 0/8 -- --
07:00 17.1 17.1 12.2 NNE 9.3 9.3 14.8 73 1021.4(0.2/3h) 35 0/8 -- --
06:00 16.1 16.1 13.0 NE 5.6 7.4 9.3 82 1021.3(0.2/3h) 30 0/8 0/12h
--
05:00 14.5 14.5 12.9 NE 5.6 7.4 9.3 90 1021.7(-0.4/3h) 29 0/8 -- --
04:00 13.9 13.7 11.7 NE 7.4 7.4 9.3 87 1021.9(-0.6/3h) 45 0/8 -- --
03:00 13.3 13.3 12.1 NE 5.6 7.4 9.3 92 1022.2(-0.7/3h) 21 0/8 -- --
02:00 14.0 14.0 12.9 NE 5.6 5.6 9.3 93 1022.2(-0.7/3h) 22 0/8 -- --
01:00 14.9 14.9 13.3 NE 5.6 7.4 9.3 90 1022.3(-0.5/3h) 30 0/8 -- --
00:00 15.4 15.4 14.1 NE 5.6 9.3 16.7 92 1022.4(-0.5/3h) 21 0/8 0/6h
0/24h
--

1 Coordinated Universal Time. Actuellement il est 21:00 locale et 19:00 UTC.

2 Le vent souffle depuis la direction indiquée vers la direction oposée.

3 Les rafales max. sont disponible 40 min après l'heure du relevé.

4 Pour les stations d'altitude (plus de 600m) le géopotentiel du niveau le plus proche de la pression obligatoire est indiqué.

5 Les stations disposant d'un diffuseur peuvent indiquer "trace". Cela signifie que des précipitations ont touchés le sol mais que la quantité est inférieure à 0.1 mm.

Récapitulatif de la journée
Température [°C] Vent [km/h] Ensoleillement4 [h] Precipitations totale5 [mm] Pression [Hpa]
Min1 Max.2 Moy.3 Max. Min Max.
13.1 21.9 8.6 16.7 0 h 0 min 0 1019.5 1022.4

1 Température minimale relevée entre 18:00 UTC la veille et 18:00 UTC le jour donné.

2 Température maximale relevée entre 06:00 UTC le jour donné et 06:00 UTC le lendemain.

3 Vent moyen de la journée basé sur les relevés horaires.

4 Ensoleillement en heures relevé entre 06:00 UTC la veille et 06:00 UTC le jour donné.

5 Précipitations totales tombées entre 06:00 UTC la jour donné et 06:00 UTC le lendemain.

Graphiques horaires